sensor_id;sensor_type;location;lat;lon;timestamp;P1;durP1;ratioP1;P2;durP2;ratioP2
41661;SDS011;27351;45.992;12.666;2022-08-14T00:01:36;7.80;;;4.80;;
41661;SDS011;27351;45.992;12.666;2022-08-14T00:04:02;7.13;;;3.97;;
41661;SDS011;27351;45.992;12.666;2022-08-14T00:06:27;8.07;;;4.72;;
41661;SDS011;27351;45.992;12.666;2022-08-14T00:08:53;6.63;;;4.32;;
41661;SDS011;27351;45.992;12.666;2022-08-14T00:11:19;7.27;;;3.97;;
41661;SDS011;27351;45.992;12.666;2022-08-14T00:13:46;7.53;;;4.10;;
41661;SDS011;27351;45.992;12.666;2022-08-14T00:16:12;7.72;;;4.03;;
41661;SDS011;27351;45.992;12.666;2022-08-14T00:18:39;6.65;;;4.30;;
41661;SDS011;27351;45.992;12.666;2022-08-14T00:21:05;8.07;;;4.28;;
41661;SDS011;27351;45.992;12.666;2022-08-14T00:23:31;8.75;;;3.80;;
41661;SDS011;27351;45.992;12.666;2022-08-14T00:25:57;8.53;;;4.13;;
41661;SDS011;27351;45.992;12.666;2022-08-14T00:28:22;6.75;;;3.88;;
41661;SDS011;27351;45.992;12.666;2022-08-14T00:30:54;7.28;;;3.78;;
41661;SDS011;27351;45.992;12.666;2022-08-14T00:33:23;6.68;;;3.70;;
41661;SDS011;27351;45.992;12.666;2022-08-14T00:35:49;5.97;;;3.55;;
41661;SDS011;27351;45.992;12.666;2022-08-14T00:38:16;5.05;;;3.25;;
41661;SDS011;27351;45.992;12.666;2022-08-14T00:40:42;7.43;;;3.80;;
41661;SDS011;27351;45.992;12.666;2022-08-14T00:43:07;5.60;;;3.40;;
41661;SDS011;27351;45.992;12.666;2022-08-14T00:45:34;6.47;;;3.73;;
41661;SDS011;27351;45.992;12.666;2022-08-14T00:48:00;6.43;;;3.63;;
41661;SDS011;27351;45.992;12.666;2022-08-14T00:50:26;5.25;;;3.42;;
41661;SDS011;27351;45.992;12.666;2022-08-14T00:52:54;6.68;;;3.53;;
41661;SDS011;27351;45.992;12.666;2022-08-14T00:55:20;5.50;;;3.63;;
41661;SDS011;27351;45.992;12.666;2022-08-14T00:57:46;9.10;;;4.07;;
41661;SDS011;27351;45.992;12.666;2022-08-14T01:00:32;6.15;;;3.90;;
41661;SDS011;27351;45.992;12.666;2022-08-14T01:02:59;7.53;;;4.40;;
41661;SDS011;27351;45.992;12.666;2022-08-14T01:05:24;6.38;;;3.75;;
41661;SDS011;27351;45.992;12.666;2022-08-14T01:07:51;5.90;;;3.60;;
41661;SDS011;27351;45.992;12.666;2022-08-14T01:10:18;8.18;;;3.90;;
41661;SDS011;27351;45.992;12.666;2022-08-14T01:12:45;7.50;;;4.10;;
41661;SDS011;27351;45.992;12.666;2022-08-14T01:15:13;7.43;;;4.10;;
41661;SDS011;27351;45.992;12.666;2022-08-14T01:17:38;8.15;;;4.85;;
41661;SDS011;27351;45.992;12.666;2022-08-14T01:20:22;7.38;;;3.97;;
41661;SDS011;27351;45.992;12.666;2022-08-14T01:23:08;10.02;;;4.53;;
41661;SDS011;27351;45.992;12.666;2022-08-14T01:25:34;7.97;;;4.05;;
41661;SDS011;27351;45.992;12.666;2022-08-14T01:28:02;7.70;;;4.20;;
41661;SDS011;27351;45.992;12.666;2022-08-14T01:30:28;7.03;;;4.47;;
41661;SDS011;27351;45.992;12.666;2022-08-14T01:32:56;9.07;;;4.32;;
41661;SDS011;27351;45.992;12.666;2022-08-14T01:35:22;9.98;;;4.50;;
41661;SDS011;27351;45.992;12.666;2022-08-14T01:37:48;8.90;;;4.20;;
41661;SDS011;27351;45.992;12.666;2022-08-14T01:40:14;6.50;;;4.00;;
41661;SDS011;27351;45.992;12.666;2022-08-14T01:42:42;7.13;;;4.38;;
41661;SDS011;27351;45.992;12.666;2022-08-14T01:45:08;6.97;;;4.22;;
41661;SDS011;27351;45.992;12.666;2022-08-14T01:47:37;7.82;;;4.07;;
41661;SDS011;27351;45.992;12.666;2022-08-14T01:50:04;7.17;;;4.13;;
41661;SDS011;27351;45.992;12.666;2022-08-14T01:52:35;8.15;;;4.03;;
41661;SDS011;27351;45.992;12.666;2022-08-14T01:55:05;8.45;;;4.40;;
41661;SDS011;27351;45.992;12.666;2022-08-14T01:57:34;7.22;;;4.60;;
41661;SDS011;27351;45.992;12.666;2022-08-14T02:00:04;6.20;;;4.10;;
41661;SDS011;27351;45.992;12.666;2022-08-14T02:02:32;6.97;;;4.00;;
41661;SDS011;27351;45.992;12.666;2022-08-14T02:04:59;7.63;;;3.75;;
41661;SDS011;27351;45.992;12.666;2022-08-14T02:07:25;7.35;;;4.15;;
41661;SDS011;27351;45.992;12.666;2022-08-14T02:09:50;6.33;;;4.07;;
41661;SDS011;27351;45.992;12.666;2022-08-14T02:12:16;8.40;;;4.13;;
41661;SDS011;27351;45.992;12.666;2022-08-14T02:14:42;6.68;;;4.10;;
41661;SDS011;27351;45.992;12.666;2022-08-14T02:17:08;6.07;;;3.90;;
41661;SDS011;27351;45.992;12.666;2022-08-14T02:19:34;6.30;;;4.07;;
41661;SDS011;27351;45.992;12.666;2022-08-14T02:22:00;8.13;;;4.20;;
41661;SDS011;27351;45.992;12.666;2022-08-14T02:24:27;7.85;;;4.20;;
41661;SDS011;27351;45.992;12.666;2022-08-14T02:26:54;7.65;;;4.55;;
41661;SDS011;27351;45.992;12.666;2022-08-14T02:29:22;7.38;;;4.70;;
41661;SDS011;27351;45.992;12.666;2022-08-14T02:31:52;6.80;;;3.90;;
41661;SDS011;27351;45.992;12.666;2022-08-14T02:34:19;6.07;;;3.70;;
41661;SDS011;27351;45.992;12.666;2022-08-14T02:36:47;5.63;;;3.50;;
41661;SDS011;27351;45.992;12.666;2022-08-14T02:39:14;6.63;;;4.00;;
41661;SDS011;27351;45.992;12.666;2022-08-14T02:41:40;7.17;;;3.90;;
41661;SDS011;27351;45.992;12.666;2022-08-14T02:44:09;6.80;;;3.90;;
41661;SDS011;27351;45.992;12.666;2022-08-14T02:46:37;7.05;;;3.83;;
41661;SDS011;27351;45.992;12.666;2022-08-14T02:49:04;5.75;;;3.55;;
41661;SDS011;27351;45.992;12.666;2022-08-14T02:51:31;6.82;;;4.00;;
41661;SDS011;27351;45.992;12.666;2022-08-14T02:53:57;5.45;;;3.38;;
41661;SDS011;27351;45.992;12.666;2022-08-14T02:56:23;5.43;;;2.90;;
41661;SDS011;27351;45.992;12.666;2022-08-14T02:58:52;5.47;;;3.10;;
41661;SDS011;27351;45.992;12.666;2022-08-14T03:01:19;5.57;;;3.17;;
41661;SDS011;27351;45.992;12.666;2022-08-14T03:03:47;5.57;;;3.05;;
41661;SDS011;27351;45.992;12.666;2022-08-14T03:06:14;7.05;;;3.00;;
41661;SDS011;27351;45.992;12.666;2022-08-14T03:08:41;5.30;;;2.90;;
41661;SDS011;27351;45.992;12.666;2022-08-14T03:11:08;5.35;;;3.05;;
41661;SDS011;27351;45.992;12.666;2022-08-14T03:13:35;6.23;;;3.17;;
41661;SDS011;27351;45.992;12.666;2022-08-14T03:16:05;4.35;;;2.95;;
41661;SDS011;27351;45.992;12.666;2022-08-14T03:18:31;5.45;;;3.00;;
41661;SDS011;27351;45.992;12.666;2022-08-14T03:20:57;5.10;;;2.60;;
41661;SDS011;27351;45.992;12.666;2022-08-14T03:23:23;4.87;;;2.73;;
41661;SDS011;27351;45.992;12.666;2022-08-14T03:25:49;4.90;;;2.70;;
41661;SDS011;27351;45.992;12.666;2022-08-14T03:28:15;4.50;;;2.53;;
41661;SDS011;27351;45.992;12.666;2022-08-14T03:30:40;5.73;;;2.90;;
41661;SDS011;27351;45.992;12.666;2022-08-14T03:33:07;3.92;;;2.60;;
41661;SDS011;27351;45.992;12.666;2022-08-14T03:35:33;3.72;;;2.50;;
41661;SDS011;27351;45.992;12.666;2022-08-14T03:38:06;6.00;;;2.78;;
41661;SDS011;27351;45.992;12.666;2022-08-14T03:40:33;4.87;;;2.67;;
41661;SDS011;27351;45.992;12.666;2022-08-14T03:43:00;4.60;;;2.53;;
41661;SDS011;27351;45.992;12.666;2022-08-14T03:45:30;3.72;;;2.50;;
41661;SDS011;27351;45.992;12.666;2022-08-14T03:47:56;4.82;;;2.60;;
41661;SDS011;27351;45.992;12.666;2022-08-14T03:50:23;4.97;;;2.60;;
41661;SDS011;27351;45.992;12.666;2022-08-14T03:52:49;5.50;;;3.00;;
41661;SDS011;27351;45.992;12.666;2022-08-14T03:55:14;6.03;;;2.95;;
41661;SDS011;27351;45.992;12.666;2022-08-14T03:57:40;4.32;;;2.30;;
41661;SDS011;27351;45.992;12.666;2022-08-14T04:00:08;5.47;;;2.80;;
41661;SDS011;27351;45.992;12.666;2022-08-14T04:02:38;5.10;;;2.70;;
41661;SDS011;27351;45.992;12.666;2022-08-14T04:05:08;4.53;;;2.33;;
41661;SDS011;27351;45.992;12.666;2022-08-14T04:07:34;5.32;;;2.53;;
41661;SDS011;27351;45.992;12.666;2022-08-14T04:10:01;4.75;;;2.60;;
41661;SDS011;27351;45.992;12.666;2022-08-14T04:12:27;8.55;;;3.17;;
41661;SDS011;27351;45.992;12.666;2022-08-14T04:14:53;5.50;;;3.37;;
41661;SDS011;27351;45.992;12.666;2022-08-14T04:17:19;4.03;;;2.45;;
41661;SDS011;27351;45.992;12.666;2022-08-14T04:19:45;6.15;;;3.08;;
41661;SDS011;27351;45.992;12.666;2022-08-14T04:22:11;4.88;;;2.72;;
41661;SDS011;27351;45.992;12.666;2022-08-14T04:24:37;4.25;;;2.60;;
41661;SDS011;27351;45.992;12.666;2022-08-14T04:27:04;5.28;;;3.13;;
41661;SDS011;27351;45.992;12.666;2022-08-14T04:29:30;5.75;;;3.00;;
41661;SDS011;27351;45.992;12.666;2022-08-14T04:31:56;6.10;;;3.10;;
41661;SDS011;27351;45.992;12.666;2022-08-14T04:34:21;6.23;;;2.60;;
41661;SDS011;27351;45.992;12.666;2022-08-14T04:36:47;4.50;;;2.30;;
41661;SDS011;27351;45.992;12.666;2022-08-14T04:39:31;8.60;;;2.90;;
41661;SDS011;27351;45.992;12.666;2022-08-14T04:42:15;4.32;;;2.75;;
41661;SDS011;27351;45.992;12.666;2022-08-14T04:44:59;5.40;;;2.57;;
41661;SDS011;27351;45.992;12.666;2022-08-14T04:47:25;5.80;;;2.80;;
41661;SDS011;27351;45.992;12.666;2022-08-14T04:50:09;4.55;;;2.63;;
41661;SDS011;27351;45.992;12.666;2022-08-14T04:52:34;6.07;;;2.93;;
41661;SDS011;27351;45.992;12.666;2022-08-14T04:55:00;3.63;;;2.60;;
41661;SDS011;27351;45.992;12.666;2022-08-14T04:57:27;3.70;;;2.40;;
41661;SDS011;27351;45.992;12.666;2022-08-14T04:59:53;5.13;;;3.03;;
41661;SDS011;27351;45.992;12.666;2022-08-14T05:02:18;5.47;;;2.87;;
41661;SDS011;27351;45.992;12.666;2022-08-14T05:04:48;7.00;;;3.30;;
41661;SDS011;27351;45.992;12.666;2022-08-14T05:07:15;5.93;;;2.83;;
41661;SDS011;27351;45.992;12.666;2022-08-14T05:09:40;5.93;;;2.80;;
41661;SDS011;27351;45.992;12.666;2022-08-14T05:12:06;5.47;;;3.15;;
41661;SDS011;27351;45.992;12.666;2022-08-14T05:14:32;6.43;;;2.72;;
41661;SDS011;27351;45.992;12.666;2022-08-14T05:16:58;8.23;;;3.20;;
41661;SDS011;27351;45.992;12.666;2022-08-14T05:19:23;7.30;;;3.30;;
41661;SDS011;27351;45.992;12.666;2022-08-14T05:21:52;6.03;;;3.08;;
41661;SDS011;27351;45.992;12.666;2022-08-14T05:24:22;6.53;;;3.00;;
41661;SDS011;27351;45.992;12.666;2022-08-14T05:26:48;6.00;;;3.13;;
41661;SDS011;27351;45.992;12.666;2022-08-14T05:29:14;5.18;;;2.90;;
41661;SDS011;27351;45.992;12.666;2022-08-14T05:31:41;4.95;;;2.50;;
41661;SDS011;27351;45.992;12.666;2022-08-14T05:34:07;5.37;;;2.67;;
41661;SDS011;27351;45.992;12.666;2022-08-14T05:36:34;5.60;;;2.58;;
41661;SDS011;27351;45.992;12.666;2022-08-14T05:39:00;5.68;;;2.35;;
41661;SDS011;27351;45.992;12.666;2022-08-14T05:41:26;4.27;;;2.57;;
41661;SDS011;27351;45.992;12.666;2022-08-14T05:43:51;4.03;;;2.57;;
41661;SDS011;27351;45.992;12.666;2022-08-14T05:46:18;5.77;;;2.70;;
41661;SDS011;27351;45.992;12.666;2022-08-14T05:48:47;4.38;;;2.50;;
41661;SDS011;27351;45.992;12.666;2022-08-14T05:51:13;3.92;;;2.50;;
41661;SDS011;27351;45.992;12.666;2022-08-14T05:53:39;5.22;;;2.80;;
41661;SDS011;27351;45.992;12.666;2022-08-14T05:56:05;3.30;;;2.10;;
41661;SDS011;27351;45.992;12.666;2022-08-14T05:58:30;5.03;;;2.25;;
41661;SDS011;27351;45.992;12.666;2022-08-14T06:00:56;3.90;;;2.15;;
41661;SDS011;27351;45.992;12.666;2022-08-14T06:03:22;5.83;;;2.10;;
41661;SDS011;27351;45.992;12.666;2022-08-14T06:05:49;6.50;;;2.30;;
41661;SDS011;27351;45.992;12.666;2022-08-14T06:08:17;5.80;;;2.17;;
41661;SDS011;27351;45.992;12.666;2022-08-14T06:10:43;4.03;;;2.10;;
41661;SDS011;27351;45.992;12.666;2022-08-14T06:13:09;3.90;;;2.45;;
41661;SDS011;27351;45.992;12.666;2022-08-14T06:15:35;3.73;;;2.00;;
41661;SDS011;27351;45.992;12.666;2022-08-14T06:18:00;7.17;;;2.30;;
41661;SDS011;27351;45.992;12.666;2022-08-14T06:20:26;5.80;;;2.17;;
41661;SDS011;27351;45.992;12.666;2022-08-14T06:22:52;5.25;;;2.50;;
41661;SDS011;27351;45.992;12.666;2022-08-14T06:25:18;5.20;;;2.47;;
41661;SDS011;27351;45.992;12.666;2022-08-14T06:27:44;5.72;;;2.20;;
41661;SDS011;27351;45.992;12.666;2022-08-14T06:30:11;3.55;;;2.00;;
41661;SDS011;27351;45.992;12.666;2022-08-14T06:32:37;5.00;;;2.00;;
41661;SDS011;27351;45.992;12.666;2022-08-14T06:35:03;3.30;;;1.90;;
41661;SDS011;27351;45.992;12.666;2022-08-14T06:37:43;4.68;;;2.10;;
41661;SDS011;27351;45.992;12.666;2022-08-14T06:40:10;3.85;;;2.10;;
41661;SDS011;27351;45.992;12.666;2022-08-14T06:42:37;3.83;;;1.90;;
41661;SDS011;27351;45.992;12.666;2022-08-14T06:45:03;3.65;;;1.98;;
41661;SDS011;27351;45.992;12.666;2022-08-14T06:47:29;4.18;;;2.22;;
41661;SDS011;27351;45.992;12.666;2022-08-14T06:49:58;6.55;;;1.90;;
41661;SDS011;27351;45.992;12.666;2022-08-14T06:52:23;5.90;;;2.08;;
41661;SDS011;27351;45.992;12.666;2022-08-14T06:54:49;4.57;;;1.90;;
41661;SDS011;27351;45.992;12.666;2022-08-14T06:57:14;3.93;;;2.27;;
41661;SDS011;27351;45.992;12.666;2022-08-14T06:59:40;3.85;;;2.10;;
41661;SDS011;27351;45.992;12.666;2022-08-14T07:02:06;7.57;;;1.90;;
41661;SDS011;27351;45.992;12.666;2022-08-14T07:04:50;4.00;;;2.00;;
41661;SDS011;27351;45.992;12.666;2022-08-14T07:07:38;4.63;;;2.03;;
41661;SDS011;27351;45.992;12.666;2022-08-14T07:10:04;5.85;;;2.00;;
41661;SDS011;27351;45.992;12.666;2022-08-14T07:12:30;3.23;;;1.97;;
41661;SDS011;27351;45.992;12.666;2022-08-14T07:14:56;3.70;;;2.13;;
41661;SDS011;27351;45.992;12.666;2022-08-14T07:17:21;4.90;;;1.73;;
41661;SDS011;27351;45.992;12.666;2022-08-14T07:19:47;4.25;;;1.92;;
41661;SDS011;27351;45.992;12.666;2022-08-14T07:22:12;3.33;;;1.80;;
41661;SDS011;27351;45.992;12.666;2022-08-14T07:24:38;6.07;;;2.20;;
41661;SDS011;27351;45.992;12.666;2022-08-14T07:27:04;7.37;;;1.90;;
41661;SDS011;27351;45.992;12.666;2022-08-14T07:29:29;4.80;;;2.10;;
41661;SDS011;27351;45.992;12.666;2022-08-14T07:31:55;4.53;;;2.20;;
41661;SDS011;27351;45.992;12.666;2022-08-14T07:34:21;4.30;;;1.90;;
41661;SDS011;27351;45.992;12.666;2022-08-14T07:36:46;4.07;;;1.90;;
41661;SDS011;27351;45.992;12.666;2022-08-14T07:39:12;3.83;;;2.20;;
41661;SDS011;27351;45.992;12.666;2022-08-14T07:41:38;3.60;;;2.00;;
41661;SDS011;27351;45.992;12.666;2022-08-14T07:44:04;5.10;;;1.90;;
41661;SDS011;27351;45.992;12.666;2022-08-14T07:46:30;3.60;;;1.70;;
41661;SDS011;27351;45.992;12.666;2022-08-14T07:48:56;6.65;;;2.67;;
41661;SDS011;27351;45.992;12.666;2022-08-14T07:51:22;3.22;;;1.90;;
41661;SDS011;27351;45.992;12.666;2022-08-14T07:53:48;4.30;;;1.90;;
41661;SDS011;27351;45.992;12.666;2022-08-14T07:56:15;3.08;;;1.90;;
41661;SDS011;27351;45.992;12.666;2022-08-14T07:58:41;5.18;;;2.15;;
41661;SDS011;27351;45.992;12.666;2022-08-14T08:01:07;2.90;;;1.80;;
41661;SDS011;27351;45.992;12.666;2022-08-14T08:03:33;3.05;;;1.80;;
41661;SDS011;27351;45.992;12.666;2022-08-14T08:06:02;4.20;;;2.10;;
41661;SDS011;27351;45.992;12.666;2022-08-14T08:08:28;2.97;;;1.80;;
41661;SDS011;27351;45.992;12.666;2022-08-14T08:10:57;10.20;;;2.20;;
41661;SDS011;27351;45.992;12.666;2022-08-14T08:13:24;4.93;;;1.83;;
41661;SDS011;27351;45.992;12.666;2022-08-14T08:15:53;4.10;;;1.70;;
41661;SDS011;27351;45.992;12.666;2022-08-14T08:18:19;3.92;;;2.00;;
41661;SDS011;27351;45.992;12.666;2022-08-14T08:20:46;3.75;;;1.80;;
41661;SDS011;27351;45.992;12.666;2022-08-14T08:23:12;3.00;;;1.52;;
41661;SDS011;27351;45.992;12.666;2022-08-14T08:25:40;2.67;;;1.90;;
41661;SDS011;27351;45.992;12.666;2022-08-14T08:28:09;4.15;;;1.92;;
41661;SDS011;27351;45.992;12.666;2022-08-14T08:30:36;3.42;;;1.77;;
41661;SDS011;27351;45.992;12.666;2022-08-14T08:33:03;4.20;;;2.00;;
41661;SDS011;27351;45.992;12.666;2022-08-14T08:35:30;3.60;;;1.80;;
41661;SDS011;27351;45.992;12.666;2022-08-14T08:38:04;3.22;;;1.92;;
41661;SDS011;27351;45.992;12.666;2022-08-14T08:40:33;4.27;;;1.87;;
41661;SDS011;27351;45.992;12.666;2022-08-14T08:43:06;4.40;;;2.00;;
41661;SDS011;27351;45.992;12.666;2022-08-14T08:45:32;3.30;;;1.90;;
41661;SDS011;27351;45.992;12.666;2022-08-14T08:47:59;4.60;;;1.98;;
41661;SDS011;27351;45.992;12.666;2022-08-14T08:52:55;6.15;;;1.90;;
41661;SDS011;27351;45.992;12.666;2022-08-14T08:55:25;3.92;;;1.80;;
41661;SDS011;27351;45.992;12.666;2022-08-14T08:57:55;7.00;;;1.80;;
41661;SDS011;27351;45.992;12.666;2022-08-14T09:00:21;4.23;;;1.90;;
41661;SDS011;27351;45.992;12.666;2022-08-14T09:02:54;2.83;;;1.70;;
41661;SDS011;27351;45.992;12.666;2022-08-14T09:05:21;3.88;;;2.03;;
41661;SDS011;27351;45.992;12.666;2022-08-14T09:07:47;3.00;;;1.98;;
41661;SDS011;27351;45.992;12.666;2022-08-14T09:10:13;2.63;;;1.65;;
41661;SDS011;27351;45.992;12.666;2022-08-14T09:12:38;2.97;;;1.70;;
41661;SDS011;27351;45.992;12.666;2022-08-14T09:15:05;2.63;;;1.67;;
41661;SDS011;27351;45.992;12.666;2022-08-14T09:17:31;2.50;;;1.80;;
41661;SDS011;27351;45.992;12.666;2022-08-14T09:19:57;3.33;;;2.08;;
41661;SDS011;27351;45.992;12.666;2022-08-14T09:22:24;4.07;;;2.00;;
41661;SDS011;27351;45.992;12.666;2022-08-14T09:24:50;4.18;;;1.70;;
41661;SDS011;27351;45.992;12.666;2022-08-14T09:27:16;4.00;;;1.70;;
41661;SDS011;27351;45.992;12.666;2022-08-14T09:29:41;4.93;;;1.70;;
41661;SDS011;27351;45.992;12.666;2022-08-14T09:32:07;2.95;;;1.60;;
41661;SDS011;27351;45.992;12.666;2022-08-14T09:34:53;4.00;;;1.50;;
41661;SDS011;27351;45.992;12.666;2022-08-14T09:47:41;3.10;;;1.55;;
41661;SDS011;27351;45.992;12.666;2022-08-14T09:53:01;3.10;;;1.77;;
41661;SDS011;27351;45.992;12.666;2022-08-14T09:55:27;2.97;;;1.48;;
41661;SDS011;27351;45.992;12.666;2022-08-14T09:58:18;2.50;;;1.50;;
41661;SDS011;27351;45.992;12.666;2022-08-14T10:00:52;2.65;;;1.83;;
41661;SDS011;27351;45.992;12.666;2022-08-14T10:06:02;3.97;;;1.63;;
41661;SDS011;27351;45.992;12.666;2022-08-14T10:08:38;3.67;;;1.63;;
41661;SDS011;27351;45.992;12.666;2022-08-14T10:11:11;2.75;;;1.52;;
41661;SDS011;27351;45.992;12.666;2022-08-14T10:13:39;2.90;;;1.77;;
41661;SDS011;27351;45.992;12.666;2022-08-14T10:16:05;3.00;;;1.50;;
41661;SDS011;27351;45.992;12.666;2022-08-14T10:18:31;2.63;;;1.60;;
41661;SDS011;27351;45.992;12.666;2022-08-14T10:20:59;4.82;;;2.15;;
41661;SDS011;27351;45.992;12.666;2022-08-14T10:23:26;3.00;;;1.58;;
41661;SDS011;27351;45.992;12.666;2022-08-14T10:25:56;4.80;;;1.60;;
41661;SDS011;27351;45.992;12.666;2022-08-14T10:28:23;3.17;;;1.70;;
41661;SDS011;27351;45.992;12.666;2022-08-14T10:30:49;5.23;;;1.60;;
41661;SDS011;27351;45.992;12.666;2022-08-14T10:35:49;3.58;;;1.40;;
41661;SDS011;27351;45.992;12.666;2022-08-14T10:38:32;4.10;;;1.90;;
41661;SDS011;27351;45.992;12.666;2022-08-14T10:41:11;3.75;;;1.70;;
41661;SDS011;27351;45.992;12.666;2022-08-14T10:43:38;4.78;;;1.65;;
41661;SDS011;27351;45.992;12.666;2022-08-14T10:46:13;2.40;;;1.60;;
41661;SDS011;27351;45.992;12.666;2022-08-14T10:48:39;3.78;;;1.60;;
41661;SDS011;27351;45.992;12.666;2022-08-14T10:51:05;3.93;;;1.60;;
41661;SDS011;27351;45.992;12.666;2022-08-14T10:53:31;8.68;;;1.88;;
41661;SDS011;27351;45.992;12.666;2022-08-14T10:55:58;4.00;;;1.70;;
41661;SDS011;27351;45.992;12.666;2022-08-14T10:58:28;2.22;;;1.45;;
41661;SDS011;27351;45.992;12.666;2022-08-14T11:00:58;7.15;;;1.92;;
41661;SDS011;27351;45.992;12.666;2022-08-14T11:03:35;6.15;;;1.60;;
41661;SDS011;27351;45.992;12.666;2022-08-14T11:06:09;3.60;;;1.58;;
41661;SDS011;27351;45.992;12.666;2022-08-14T11:08:38;3.17;;;1.93;;
41661;SDS011;27351;45.992;12.666;2022-08-14T11:11:04;3.13;;;1.70;;
41661;SDS011;27351;45.992;12.666;2022-08-14T11:13:30;2.50;;;1.55;;
41661;SDS011;27351;45.992;12.666;2022-08-14T11:15:57;2.40;;;1.37;;
41661;SDS011;27351;45.992;12.666;2022-08-14T11:18:26;4.88;;;1.70;;
41661;SDS011;27351;45.992;12.666;2022-08-14T11:20:54;3.67;;;1.60;;
41661;SDS011;27351;45.992;12.666;2022-08-14T11:23:21;2.05;;;1.52;;
41661;SDS011;27351;45.992;12.666;2022-08-14T11:25:50;3.40;;;1.35;;
41661;SDS011;27351;45.992;12.666;2022-08-14T11:28:18;4.47;;;1.80;;
41661;SDS011;27351;45.992;12.666;2022-08-14T11:30:45;3.95;;;1.73;;
41661;SDS011;27351;45.992;12.666;2022-08-14T11:33:11;4.00;;;1.77;;
41661;SDS011;27351;45.992;12.666;2022-08-14T11:35:37;4.97;;;1.60;;
41661;SDS011;27351;45.992;12.666;2022-08-14T11:38:05;2.53;;;1.50;;
41661;SDS011;27351;45.992;12.666;2022-08-14T11:40:35;6.25;;;1.85;;
41661;SDS011;27351;45.992;12.666;2022-08-14T11:43:02;2.95;;;1.70;;
41661;SDS011;27351;45.992;12.666;2022-08-14T11:45:30;2.40;;;1.70;;
41661;SDS011;27351;45.992;12.666;2022-08-14T11:47:57;4.97;;;1.85;;
41661;SDS011;27351;45.992;12.666;2022-08-14T11:50:24;3.70;;;1.70;;
41661;SDS011;27351;45.992;12.666;2022-08-14T11:52:50;3.63;;;1.98;;
41661;SDS011;27351;45.992;12.666;2022-08-14T11:55:18;3.75;;;1.90;;
41661;SDS011;27351;45.992;12.666;2022-08-14T11:57:43;3.28;;;1.77;;
41661;SDS011;27351;45.992;12.666;2022-08-14T12:00:11;4.75;;;1.80;;
41661;SDS011;27351;45.992;12.666;2022-08-14T12:02:47;2.87;;;1.40;;
41661;SDS011;27351;45.992;12.666;2022-08-14T12:05:13;2.38;;;1.58;;
41661;SDS011;27351;45.992;12.666;2022-08-14T12:07:48;2.83;;;1.63;;
41661;SDS011;27351;45.992;12.666;2022-08-14T12:10:16;3.72;;;1.80;;
41661;SDS011;27351;45.992;12.666;2022-08-14T12:12:42;2.15;;;1.50;;
41661;SDS011;27351;45.992;12.666;2022-08-14T12:15:08;5.07;;;1.60;;
41661;SDS011;27351;45.992;12.666;2022-08-14T12:17:46;3.30;;;1.67;;
41661;SDS011;27351;45.992;12.666;2022-08-14T12:20:17;2.53;;;1.63;;
41661;SDS011;27351;45.992;12.666;2022-08-14T12:22:44;2.67;;;1.47;;
41661;SDS011;27351;45.992;12.666;2022-08-14T12:25:14;4.50;;;1.70;;
41661;SDS011;27351;45.992;12.666;2022-08-14T12:27:40;2.75;;;1.63;;
41661;SDS011;27351;45.992;12.666;2022-08-14T12:30:07;4.70;;;1.80;;
41661;SDS011;27351;45.992;12.666;2022-08-14T12:32:40;3.45;;;1.52;;
41661;SDS011;27351;45.992;12.666;2022-08-14T12:35:06;1.67;;;1.33;;
41661;SDS011;27351;45.992;12.666;2022-08-14T12:37:34;5.50;;;1.70;;
41661;SDS011;27351;45.992;12.666;2022-08-14T12:40:08;1.90;;;1.30;;
41661;SDS011;27351;45.992;12.666;2022-08-14T12:42:34;2.28;;;1.50;;
41661;SDS011;27351;45.992;12.666;2022-08-14T12:45:00;2.40;;;1.48;;
41661;SDS011;27351;45.992;12.666;2022-08-14T12:47:25;3.43;;;1.60;;
41661;SDS011;27351;45.992;12.666;2022-08-14T12:49:55;2.80;;;1.42;;
41661;SDS011;27351;45.992;12.666;2022-08-14T12:54:59;2.20;;;1.20;;
41661;SDS011;27351;45.992;12.666;2022-08-14T12:57:59;2.13;;;1.50;;
41661;SDS011;27351;45.992;12.666;2022-08-14T13:00:20;3.38;;;1.30;;
41661;SDS011;27351;45.992;12.666;2022-08-14T13:02:47;2.67;;;1.50;;
41661;SDS011;27351;45.992;12.666;2022-08-14T13:05:18;2.60;;;1.52;;
41661;SDS011;27351;45.992;12.666;2022-08-14T13:07:47;1.67;;;1.30;;
41661;SDS011;27351;45.992;12.666;2022-08-14T13:10:16;3.90;;;1.60;;
41661;SDS011;27351;45.992;12.666;2022-08-14T13:12:43;2.20;;;1.30;;
41661;SDS011;27351;45.992;12.666;2022-08-14T13:15:09;3.27;;;1.40;;
41661;SDS011;27351;45.992;12.666;2022-08-14T13:17:45;2.50;;;1.48;;
41661;SDS011;27351;45.992;12.666;2022-08-14T13:20:12;1.85;;;1.40;;
41661;SDS011;27351;45.992;12.666;2022-08-14T13:22:39;2.83;;;1.45;;
41661;SDS011;27351;45.992;12.666;2022-08-14T13:25:07;2.10;;;1.38;;
41661;SDS011;27351;45.992;12.666;2022-08-14T13:27:33;3.58;;;1.60;;
41661;SDS011;27351;45.992;12.666;2022-08-14T13:30:07;2.17;;;1.30;;
41661;SDS011;27351;45.992;12.666;2022-08-14T13:32:33;3.78;;;1.33;;
41661;SDS011;27351;45.992;12.666;2022-08-14T13:35:04;3.35;;;1.75;;
41661;SDS011;27351;45.992;12.666;2022-08-14T13:37:30;3.22;;;1.40;;
41661;SDS011;27351;45.992;12.666;2022-08-14T13:39:55;2.38;;;1.48;;
41661;SDS011;27351;45.992;12.666;2022-08-14T13:42:22;2.25;;;1.42;;
41661;SDS011;27351;45.992;12.666;2022-08-14T13:44:48;3.17;;;1.30;;
41661;SDS011;27351;45.992;12.666;2022-08-14T13:47:15;2.00;;;1.33;;
41661;SDS011;27351;45.992;12.666;2022-08-14T13:49:47;2.22;;;1.35;;
41661;SDS011;27351;45.992;12.666;2022-08-14T13:52:20;4.30;;;1.88;;
41661;SDS011;27351;45.992;12.666;2022-08-14T13:54:47;2.05;;;1.20;;
41661;SDS011;27351;45.992;12.666;2022-08-14T13:57:13;2.70;;;1.30;;
41661;SDS011;27351;45.992;12.666;2022-08-14T13:59:49;2.65;;;1.30;;
41661;SDS011;27351;45.992;12.666;2022-08-14T14:02:15;2.38;;;1.30;;
41661;SDS011;27351;45.992;12.666;2022-08-14T14:04:43;3.05;;;1.73;;
41661;SDS011;27351;45.992;12.666;2022-08-14T14:07:10;2.63;;;1.35;;
41661;SDS011;27351;45.992;12.666;2022-08-14T14:09:41;2.17;;;1.20;;
41661;SDS011;27351;45.992;12.666;2022-08-14T14:12:07;3.47;;;1.30;;
41661;SDS011;27351;45.992;12.666;2022-08-14T14:14:36;2.63;;;1.30;;
41661;SDS011;27351;45.992;12.666;2022-08-14T14:17:03;4.40;;;1.40;;
41661;SDS011;27351;45.992;12.666;2022-08-14T14:19:29;4.10;;;1.48;;
41661;SDS011;27351;45.992;12.666;2022-08-14T14:21:57;2.20;;;1.30;;
41661;SDS011;27351;45.992;12.666;2022-08-14T14:24:24;2.88;;;1.50;;
41661;SDS011;27351;45.992;12.666;2022-08-14T14:26:49;3.60;;;1.15;;
41661;SDS011;27351;45.992;12.666;2022-08-14T14:29:19;2.10;;;1.38;;
41661;SDS011;27351;45.992;12.666;2022-08-14T14:31:46;1.75;;;1.30;;
41661;SDS011;27351;45.992;12.666;2022-08-14T14:34:12;3.05;;;1.20;;
41661;SDS011;27351;45.992;12.666;2022-08-14T14:36:40;3.70;;;1.30;;
41661;SDS011;27351;45.992;12.666;2022-08-14T14:39:08;4.23;;;1.70;;
41661;SDS011;27351;45.992;12.666;2022-08-14T14:41:36;2.70;;;1.20;;
41661;SDS011;27351;45.992;12.666;2022-08-14T14:44:03;1.70;;;1.20;;
41661;SDS011;27351;45.992;12.666;2022-08-14T14:46:33;2.35;;;1.30;;
41661;SDS011;27351;45.992;12.666;2022-08-14T14:49:00;2.45;;;1.35;;
41661;SDS011;27351;45.992;12.666;2022-08-14T14:51:27;3.25;;;1.30;;
41661;SDS011;27351;45.992;12.666;2022-08-14T14:53:52;3.80;;;1.30;;
41661;SDS011;27351;45.992;12.666;2022-08-14T14:56:18;3.13;;;1.20;;
41661;SDS011;27351;45.992;12.666;2022-08-14T14:58:44;2.88;;;1.20;;
41661;SDS011;27351;45.992;12.666;2022-08-14T15:01:10;1.67;;;1.20;;